sensor_id;sensor_type;location;lat;lon;timestamp;P1;durP1;ratioP1;P2;durP2;ratioP2
55292;SDS011;41157;53.560;10.098;2023-10-13T00:01:01;10.63;;;2.50;;
55292;SDS011;41157;53.560;10.098;2023-10-13T00:03:31;8.77;;;2.00;;
55292;SDS011;41157;53.560;10.098;2023-10-13T00:05:58;7.57;;;2.20;;
55292;SDS011;41157;53.560;10.098;2023-10-13T00:08:28;7.77;;;2.07;;
55292;SDS011;41157;53.560;10.098;2023-10-13T00:10:55;9.27;;;2.13;;
55292;SDS011;41157;53.560;10.098;2023-10-13T00:13:26;14.20;;;2.60;;
55292;SDS011;41157;53.560;10.098;2023-10-13T00:15:54;9.33;;;2.37;;
55292;SDS011;41157;53.560;10.098;2023-10-13T00:18:25;5.87;;;2.20;;
55292;SDS011;41157;53.560;10.098;2023-10-13T00:20:58;5.63;;;1.83;;
55292;SDS011;41157;53.560;10.098;2023-10-13T00:23:25;15.87;;;2.40;;
55292;SDS011;41157;53.560;10.098;2023-10-13T00:25:52;6.23;;;2.03;;
55292;SDS011;41157;53.560;10.098;2023-10-13T00:28:24;5.87;;;2.43;;
55292;SDS011;41157;53.560;10.098;2023-10-13T00:30:53;7.53;;;2.43;;
55292;SDS011;41157;53.560;10.098;2023-10-13T00:33:25;5.83;;;2.67;;
55292;SDS011;41157;53.560;10.098;2023-10-13T00:35:52;8.87;;;2.20;;
55292;SDS011;41157;53.560;10.098;2023-10-13T00:38:22;5.57;;;2.33;;
55292;SDS011;41157;53.560;10.098;2023-10-13T00:40:50;4.60;;;2.30;;
55292;SDS011;41157;53.560;10.098;2023-10-13T00:43:18;11.47;;;2.53;;
55292;SDS011;41157;53.560;10.098;2023-10-13T00:46:03;6.20;;;2.40;;
55292;SDS011;41157;53.560;10.098;2023-10-13T00:48:38;5.70;;;2.50;;
55292;SDS011;41157;53.560;10.098;2023-10-13T00:51:08;14.17;;;2.80;;
55292;SDS011;41157;53.560;10.098;2023-10-13T00:53:43;5.30;;;2.43;;
55292;SDS011;41157;53.560;10.098;2023-10-13T00:56:09;7.10;;;2.80;;
55292;SDS011;41157;53.560;10.098;2023-10-13T00:58:44;15.83;;;3.23;;
55292;SDS011;41157;53.560;10.098;2023-10-13T01:01:12;8.10;;;3.00;;
55292;SDS011;41157;53.560;10.098;2023-10-13T01:03:48;8.10;;;2.87;;
55292;SDS011;41157;53.560;10.098;2023-10-13T01:06:15;10.50;;;3.00;;
55292;SDS011;41157;53.560;10.098;2023-10-13T01:08:44;6.90;;;3.10;;
55292;SDS011;41157;53.560;10.098;2023-10-13T01:11:15;9.97;;;3.10;;
55292;SDS011;41157;53.560;10.098;2023-10-13T01:13:42;11.37;;;3.57;;
55292;SDS011;41157;53.560;10.098;2023-10-13T01:16:09;10.80;;;3.63;;
55292;SDS011;41157;53.560;10.098;2023-10-13T01:18:37;10.73;;;3.33;;
55292;SDS011;41157;53.560;10.098;2023-10-13T01:21:13;8.20;;;3.30;;
55292;SDS011;41157;53.560;10.098;2023-10-13T01:23:42;10.70;;;3.27;;
55292;SDS011;41157;53.560;10.098;2023-10-13T01:26:10;10.27;;;3.83;;
55292;SDS011;41157;53.560;10.098;2023-10-13T01:28:38;10.33;;;4.13;;
55292;SDS011;41157;53.560;10.098;2023-10-13T01:31:11;12.00;;;3.63;;
55292;SDS011;41157;53.560;10.098;2023-10-13T01:33:41;9.13;;;4.13;;
55292;SDS011;41157;53.560;10.098;2023-10-13T01:36:08;16.27;;;4.43;;
55292;SDS011;41157;53.560;10.098;2023-10-13T01:38:37;14.40;;;4.70;;
55292;SDS011;41157;53.560;10.098;2023-10-13T01:41:09;18.70;;;4.70;;
55292;SDS011;41157;53.560;10.098;2023-10-13T01:43:35;10.63;;;4.43;;
55292;SDS011;41157;53.560;10.098;2023-10-13T01:46:02;13.97;;;5.37;;
55292;SDS011;41157;53.560;10.098;2023-10-13T01:48:28;11.97;;;4.70;;
55292;SDS011;41157;53.560;10.098;2023-10-13T01:50:58;9.17;;;4.80;;
55292;SDS011;41157;53.560;10.098;2023-10-13T01:53:27;11.67;;;5.47;;
55292;SDS011;41157;53.560;10.098;2023-10-13T01:55:54;14.73;;;5.40;;
55292;SDS011;41157;53.560;10.098;2023-10-13T01:58:23;16.03;;;5.50;;
55292;SDS011;41157;53.560;10.098;2023-10-13T02:00:53;14.50;;;5.03;;
55292;SDS011;41157;53.560;10.098;2023-10-13T02:03:21;14.03;;;5.73;;
55292;SDS011;41157;53.560;10.098;2023-10-13T02:05:48;12.60;;;5.57;;
55292;SDS011;41157;53.560;10.098;2023-10-13T02:08:22;12.13;;;5.03;;
55292;SDS011;41157;53.560;10.098;2023-10-13T02:10:49;16.23;;;5.60;;
55292;SDS011;41157;53.560;10.098;2023-10-13T02:13:16;14.60;;;5.57;;
55292;SDS011;41157;53.560;10.098;2023-10-13T02:15:45;16.67;;;6.43;;
55292;SDS011;41157;53.560;10.098;2023-10-13T02:18:13;17.27;;;6.03;;
55292;SDS011;41157;53.560;10.098;2023-10-13T02:20:45;20.07;;;7.07;;
55292;SDS011;41157;53.560;10.098;2023-10-13T02:23:11;20.57;;;6.63;;
55292;SDS011;41157;53.560;10.098;2023-10-13T02:25:39;14.67;;;6.50;;
55292;SDS011;41157;53.560;10.098;2023-10-13T02:28:08;10.93;;;6.00;;
55292;SDS011;41157;53.560;10.098;2023-10-13T02:30:38;17.03;;;7.17;;
55292;SDS011;41157;53.560;10.098;2023-10-13T02:33:06;17.57;;;6.87;;
55292;SDS011;41157;53.560;10.098;2023-10-13T02:35:35;14.23;;;6.53;;
55292;SDS011;41157;53.560;10.098;2023-10-13T02:38:06;19.60;;;7.37;;
55292;SDS011;41157;53.560;10.098;2023-10-13T02:40:37;18.37;;;7.20;;
55292;SDS011;41157;53.560;10.098;2023-10-13T02:43:03;14.23;;;6.60;;
55292;SDS011;41157;53.560;10.098;2023-10-13T02:45:31;15.70;;;6.43;;
55292;SDS011;41157;53.560;10.098;2023-10-13T02:47:57;10.50;;;6.70;;
55292;SDS011;41157;53.560;10.098;2023-10-13T02:50:40;24.03;;;7.37;;
55292;SDS011;41157;53.560;10.098;2023-10-13T02:53:10;15.73;;;6.47;;
55292;SDS011;41157;53.560;10.098;2023-10-13T02:55:50;22.23;;;6.90;;
55292;SDS011;41157;53.560;10.098;2023-10-13T02:58:16;15.80;;;7.17;;
55292;SDS011;41157;53.560;10.098;2023-10-13T03:00:43;22.10;;;7.87;;
55292;SDS011;41157;53.560;10.098;2023-10-13T03:03:10;17.27;;;7.50;;
55292;SDS011;41157;53.560;10.098;2023-10-13T03:05:41;16.73;;;7.37;;
55292;SDS011;41157;53.560;10.098;2023-10-13T03:08:07;19.77;;;8.13;;
55292;SDS011;41157;53.560;10.098;2023-10-13T03:10:37;28.17;;;7.63;;
55292;SDS011;41157;53.560;10.098;2023-10-13T03:13:10;19.00;;;7.90;;
55292;SDS011;41157;53.560;10.098;2023-10-13T03:15:37;15.00;;;7.43;;
55292;SDS011;41157;53.560;10.098;2023-10-13T03:18:04;16.73;;;7.40;;
55292;SDS011;41157;53.560;10.098;2023-10-13T03:20:31;22.53;;;9.53;;
55292;SDS011;41157;53.560;10.098;2023-10-13T03:23:01;14.63;;;8.37;;
55292;SDS011;41157;53.560;10.098;2023-10-13T03:25:34;19.53;;;9.23;;
55292;SDS011;41157;53.560;10.098;2023-10-13T03:28:07;20.03;;;8.17;;
55292;SDS011;41157;53.560;10.098;2023-10-13T03:30:36;13.43;;;7.70;;
55292;SDS011;41157;53.560;10.098;2023-10-13T03:33:07;18.83;;;7.87;;
55292;SDS011;41157;53.560;10.098;2023-10-13T03:35:39;15.47;;;7.77;;
55292;SDS011;41157;53.560;10.098;2023-10-13T03:38:11;11.67;;;7.00;;
55292;SDS011;41157;53.560;10.098;2023-10-13T03:40:42;8.40;;;5.93;;
55292;SDS011;41157;53.560;10.098;2023-10-13T03:43:14;13.13;;;6.47;;
55292;SDS011;41157;53.560;10.098;2023-10-13T03:45:46;11.27;;;6.73;;
55292;SDS011;41157;53.560;10.098;2023-10-13T03:48:14;9.07;;;6.20;;
55292;SDS011;41157;53.560;10.098;2023-10-13T03:50:53;12.27;;;5.90;;
55292;SDS011;41157;53.560;10.098;2023-10-13T03:53:29;8.50;;;5.60;;
55292;SDS011;41157;53.560;10.098;2023-10-13T03:55:59;11.40;;;6.20;;
55292;SDS011;41157;53.560;10.098;2023-10-13T03:58:37;10.07;;;6.20;;
55292;SDS011;41157;53.560;10.098;2023-10-13T04:01:07;11.83;;;6.13;;
55292;SDS011;41157;53.560;10.098;2023-10-13T04:03:37;16.50;;;7.10;;
55292;SDS011;41157;53.560;10.098;2023-10-13T04:06:08;14.43;;;7.50;;
55292;SDS011;41157;53.560;10.098;2023-10-13T04:08:43;12.17;;;7.17;;
55292;SDS011;41157;53.560;10.098;2023-10-13T04:11:41;15.87;;;7.57;;
55292;SDS011;41157;53.560;10.098;2023-10-13T04:14:39;21.50;;;8.63;;
55292;SDS011;41157;53.560;10.098;2023-10-13T04:17:39;14.87;;;8.63;;
55292;SDS011;41157;53.560;10.098;2023-10-13T04:20:10;16.43;;;8.50;;
55292;SDS011;41157;53.560;10.098;2023-10-13T04:22:57;17.77;;;8.67;;
55292;SDS011;41157;53.560;10.098;2023-10-13T04:25:43;15.17;;;8.67;;
55292;SDS011;41157;53.560;10.098;2023-10-13T04:28:28;18.97;;;9.33;;
55292;SDS011;41157;53.560;10.098;2023-10-13T04:31:02;17.60;;;8.13;;
55292;SDS011;41157;53.560;10.098;2023-10-13T04:33:37;15.53;;;9.10;;
55292;SDS011;41157;53.560;10.098;2023-10-13T04:36:18;15.70;;;9.43;;
55292;SDS011;41157;53.560;10.098;2023-10-13T04:39:01;17.80;;;10.87;;
55292;SDS011;41157;53.560;10.098;2023-10-13T04:41:35;25.53;;;10.90;;
55292;SDS011;41157;53.560;10.098;2023-10-13T04:44:04;21.47;;;11.23;;
55292;SDS011;41157;53.560;10.098;2023-10-13T04:46:49;18.50;;;9.60;;
55292;SDS011;41157;53.560;10.098;2023-10-13T04:49:34;21.03;;;10.17;;
55292;SDS011;41157;53.560;10.098;2023-10-13T04:52:14;17.83;;;9.63;;
55292;SDS011;41157;53.560;10.098;2023-10-13T04:55:03;18.83;;;9.83;;
55292;SDS011;41157;53.560;10.098;2023-10-13T04:57:43;20.97;;;10.60;;
55292;SDS011;41157;53.560;10.098;2023-10-13T05:00:18;22.27;;;10.57;;
55292;SDS011;41157;53.560;10.098;2023-10-13T05:03:03;16.43;;;10.53;;
55292;SDS011;41157;53.560;10.098;2023-10-13T05:05:48;18.63;;;10.50;;
55292;SDS011;41157;53.560;10.098;2023-10-13T05:08:29;20.20;;;11.73;;
55292;SDS011;41157;53.560;10.098;2023-10-13T05:11:28;22.43;;;12.20;;
55292;SDS011;41157;53.560;10.098;2023-10-13T05:14:14;22.13;;;11.10;;
55292;SDS011;41157;53.560;10.098;2023-10-13T05:16:58;23.97;;;12.27;;
55292;SDS011;41157;53.560;10.098;2023-10-13T05:19:42;20.20;;;11.90;;
55292;SDS011;41157;53.560;10.098;2023-10-13T05:22:27;25.43;;;12.87;;
55292;SDS011;41157;53.560;10.098;2023-10-13T05:25:12;21.13;;;12.73;;
55292;SDS011;41157;53.560;10.098;2023-10-13T05:27:57;24.80;;;12.67;;
55292;SDS011;41157;53.560;10.098;2023-10-13T05:30:43;25.37;;;14.00;;
55292;SDS011;41157;53.560;10.098;2023-10-13T05:33:27;25.33;;;14.97;;
55292;SDS011;41157;53.560;10.098;2023-10-13T05:36:12;25.40;;;14.83;;
55292;SDS011;41157;53.560;10.098;2023-10-13T05:38:56;28.47;;;15.60;;
55292;SDS011;41157;53.560;10.098;2023-10-13T05:41:43;34.17;;;16.27;;
55292;SDS011;41157;53.560;10.098;2023-10-13T05:44:28;30.20;;;17.23;;
55292;SDS011;41157;53.560;10.098;2023-10-13T05:47:13;28.87;;;16.40;;
55292;SDS011;41157;53.560;10.098;2023-10-13T05:50:03;33.50;;;18.10;;
55292;SDS011;41157;53.560;10.098;2023-10-13T05:52:38;34.83;;;17.77;;
55292;SDS011;41157;53.560;10.098;2023-10-13T05:55:24;29.47;;;17.73;;
55292;SDS011;41157;53.560;10.098;2023-10-13T05:58:09;31.03;;;18.00;;
55292;SDS011;41157;53.560;10.098;2023-10-13T06:00:53;35.00;;;18.90;;
55292;SDS011;41157;53.560;10.098;2023-10-13T06:03:39;35.73;;;18.67;;
55292;SDS011;41157;53.560;10.098;2023-10-13T06:06:24;31.90;;;17.80;;
55292;SDS011;41157;53.560;10.098;2023-10-13T06:09:09;35.50;;;19.77;;
55292;SDS011;41157;53.560;10.098;2023-10-13T06:11:54;36.83;;;20.73;;
55292;SDS011;41157;53.560;10.098;2023-10-13T06:14:39;34.77;;;19.90;;
55292;SDS011;41157;53.560;10.098;2023-10-13T06:17:23;33.70;;;20.67;;
55292;SDS011;41157;53.560;10.098;2023-10-13T06:20:10;34.03;;;19.70;;
55292;SDS011;41157;53.560;10.098;2023-10-13T06:22:54;39.23;;;21.83;;
55292;SDS011;41157;53.560;10.098;2023-10-13T06:25:41;44.67;;;21.47;;
55292;SDS011;41157;53.560;10.098;2023-10-13T06:28:26;36.83;;;20.20;;
55292;SDS011;41157;53.560;10.098;2023-10-13T06:31:11;30.70;;;20.13;;
55292;SDS011;41157;53.560;10.098;2023-10-13T06:33:40;34.60;;;19.97;;
55292;SDS011;41157;53.560;10.098;2023-10-13T06:36:11;32.73;;;20.30;;
55292;SDS011;41157;53.560;10.098;2023-10-13T06:38:38;31.83;;;20.27;;
55292;SDS011;41157;53.560;10.098;2023-10-13T06:41:07;26.60;;;18.80;;
55292;SDS011;41157;53.560;10.098;2023-10-13T06:43:34;30.60;;;20.47;;
55292;SDS011;41157;53.560;10.098;2023-10-13T06:46:04;30.93;;;20.00;;
55292;SDS011;41157;53.560;10.098;2023-10-13T06:48:32;32.93;;;20.90;;
55292;SDS011;41157;53.560;10.098;2023-10-13T06:50:59;32.67;;;20.35;;
55292;SDS011;41157;53.560;10.098;2023-10-13T06:53:33;33.37;;;21.00;;
55292;SDS011;41157;53.560;10.098;2023-10-13T06:56:05;34.43;;;21.93;;
55292;SDS011;41157;53.560;10.098;2023-10-13T06:58:34;35.33;;;21.57;;
55292;SDS011;41157;53.560;10.098;2023-10-13T07:01:06;34.75;;;21.55;;
55292;SDS011;41157;53.560;10.098;2023-10-13T07:03:39;37.80;;;22.47;;
55292;SDS011;41157;53.560;10.098;2023-10-13T07:06:06;31.33;;;21.53;;
55292;SDS011;41157;53.560;10.098;2023-10-13T07:08:37;31.23;;;20.02;;
55292;SDS011;41157;53.560;10.098;2023-10-13T07:11:04;39.45;;;21.55;;
55292;SDS011;41157;53.560;10.098;2023-10-13T07:13:38;35.78;;;21.35;;
55292;SDS011;41157;53.560;10.098;2023-10-13T07:16:12;34.88;;;20.55;;
55292;SDS011;41157;53.560;10.098;2023-10-13T07:18:40;35.13;;;20.98;;
55292;SDS011;41157;53.560;10.098;2023-10-13T07:21:14;32.73;;;20.40;;
55292;SDS011;41157;53.560;10.098;2023-10-13T07:23:42;41.40;;;22.85;;
55292;SDS011;41157;53.560;10.098;2023-10-13T07:26:25;32.10;;;19.95;;
55292;SDS011;41157;53.560;10.098;2023-10-13T07:28:53;33.15;;;20.33;;
55292;SDS011;41157;53.560;10.098;2023-10-13T07:31:20;28.92;;;20.30;;
55292;SDS011;41157;53.560;10.098;2023-10-13T07:33:51;32.17;;;20.35;;
55292;SDS011;41157;53.560;10.098;2023-10-13T07:36:29;30.15;;;20.33;;
55292;SDS011;41157;53.560;10.098;2023-10-13T07:39:05;32.03;;;19.13;;
55292;SDS011;41157;53.560;10.098;2023-10-13T07:41:45;29.38;;;19.23;;
55292;SDS011;41157;53.560;10.098;2023-10-13T07:44:16;26.47;;;17.97;;
55292;SDS011;41157;53.560;10.098;2023-10-13T07:46:45;25.67;;;18.20;;
55292;SDS011;41157;53.560;10.098;2023-10-13T07:49:14;26.25;;;17.20;;
55292;SDS011;41157;53.560;10.098;2023-10-13T07:51:41;27.35;;;16.88;;
55292;SDS011;41157;53.560;10.098;2023-10-13T07:54:12;25.70;;;16.92;;
55292;SDS011;41157;53.560;10.098;2023-10-13T07:56:46;21.80;;;16.67;;
55292;SDS011;41157;53.560;10.098;2023-10-13T07:59:13;21.35;;;15.75;;
55292;SDS011;41157;53.560;10.098;2023-10-13T08:01:41;23.45;;;16.25;;
55292;SDS011;41157;53.560;10.098;2023-10-13T08:04:08;22.45;;;15.65;;
55292;SDS011;41157;53.560;10.098;2023-10-13T08:06:37;23.90;;;15.07;;
55292;SDS011;41157;53.560;10.098;2023-10-13T08:09:05;20.33;;;14.30;;
55292;SDS011;41157;53.560;10.098;2023-10-13T08:11:55;17.70;;;12.45;;
55292;SDS011;41157;53.560;10.098;2023-10-13T08:14:22;16.97;;;12.43;;
55292;SDS011;41157;53.560;10.098;2023-10-13T08:16:54;15.57;;;11.55;;
55292;SDS011;41157;53.560;10.098;2023-10-13T08:19:25;14.60;;;11.07;;
55292;SDS011;41157;53.560;10.098;2023-10-13T08:21:53;17.42;;;11.70;;
55292;SDS011;41157;53.560;10.098;2023-10-13T08:24:23;15.77;;;11.30;;
55292;SDS011;41157;53.560;10.098;2023-10-13T08:26:55;14.50;;;10.80;;
55292;SDS011;41157;53.560;10.098;2023-10-13T08:29:40;14.77;;;11.00;;
55292;SDS011;41157;53.560;10.098;2023-10-13T08:32:39;15.60;;;9.88;;
55292;SDS011;41157;53.560;10.098;2023-10-13T08:35:21;11.82;;;9.30;;
55292;SDS011;41157;53.560;10.098;2023-10-13T08:37:58;12.13;;;9.45;;
55292;SDS011;41157;53.560;10.098;2023-10-13T08:40:29;11.57;;;9.00;;
55292;SDS011;41157;53.560;10.098;2023-10-13T08:43:30;14.52;;;9.38;;
55292;SDS011;41157;53.560;10.098;2023-10-13T08:46:08;15.80;;;10.00;;
55292;SDS011;41157;53.560;10.098;2023-10-13T08:48:49;12.70;;;8.23;;
55292;SDS011;41157;53.560;10.098;2023-10-13T08:51:16;14.05;;;8.60;;
55292;SDS011;41157;53.560;10.098;2023-10-13T08:54:04;12.10;;;8.57;;
55292;SDS011;41157;53.560;10.098;2023-10-13T08:56:43;10.13;;;8.13;;
55292;SDS011;41157;53.560;10.098;2023-10-13T08:59:14;9.13;;;7.70;;
55292;SDS011;41157;53.560;10.098;2023-10-13T09:01:48;9.75;;;7.47;;
55292;SDS011;41157;53.560;10.098;2023-10-13T09:04:24;10.77;;;7.43;;
55292;SDS011;41157;53.560;10.098;2023-10-13T09:06:57;9.73;;;6.73;;
55292;SDS011;41157;53.560;10.098;2023-10-13T09:09:33;9.10;;;7.20;;
55292;SDS011;41157;53.560;10.098;2023-10-13T09:12:01;10.65;;;6.60;;
55292;SDS011;41157;53.560;10.098;2023-10-13T09:14:35;8.82;;;6.32;;
55292;SDS011;41157;53.560;10.098;2023-10-13T09:17:09;8.70;;;6.38;;
55292;SDS011;41157;53.560;10.098;2023-10-13T09:19:46;8.60;;;5.95;;
55292;SDS011;41157;53.560;10.098;2023-10-13T09:22:20;8.52;;;5.60;;
55292;SDS011;41157;53.560;10.098;2023-10-13T09:24:51;7.63;;;5.68;;
55292;SDS011;41157;53.560;10.098;2023-10-13T09:27:18;9.25;;;5.80;;
55292;SDS011;41157;53.560;10.098;2023-10-13T09:29:55;6.75;;;5.13;;
55292;SDS011;41157;53.560;10.098;2023-10-13T09:32:22;8.13;;;5.53;;
55292;SDS011;41157;53.560;10.098;2023-10-13T09:34:48;11.68;;;5.57;;
55292;SDS011;41157;53.560;10.098;2023-10-13T09:37:15;7.22;;;5.93;;
55292;SDS011;41157;53.560;10.098;2023-10-13T09:39:45;8.85;;;4.82;;
55292;SDS011;41157;53.560;10.098;2023-10-13T09:42:17;7.45;;;4.90;;
55292;SDS011;41157;53.560;10.098;2023-10-13T09:44:44;7.13;;;4.70;;
55292;SDS011;41157;53.560;10.098;2023-10-13T09:47:18;7.85;;;4.40;;
55292;SDS011;41157;53.560;10.098;2023-10-13T09:49:49;7.57;;;4.80;;
55292;SDS011;41157;53.560;10.098;2023-10-13T09:52:22;7.82;;;4.07;;
55292;SDS011;41157;53.560;10.098;2023-10-13T09:54:58;8.68;;;4.35;;
55292;SDS011;41157;53.560;10.098;2023-10-13T09:57:29;11.30;;;4.47;;
55292;SDS011;41157;53.560;10.098;2023-10-13T10:00:00;9.32;;;4.00;;
55292;SDS011;41157;53.560;10.098;2023-10-13T10:02:33;5.28;;;3.75;;
55292;SDS011;41157;53.560;10.098;2023-10-13T10:05:00;10.27;;;3.97;;
55292;SDS011;41157;53.560;10.098;2023-10-13T10:07:53;7.50;;;3.42;;
55292;SDS011;41157;53.560;10.098;2023-10-13T10:10:21;7.63;;;4.13;;
55292;SDS011;41157;53.560;10.098;2023-10-13T10:12:48;10.48;;;4.10;;
55292;SDS011;41157;53.560;10.098;2023-10-13T10:15:20;9.88;;;4.68;;
55292;SDS011;41157;53.560;10.098;2023-10-13T10:17:57;5.65;;;4.05;;
55292;SDS011;41157;53.560;10.098;2023-10-13T10:20:28;14.60;;;4.93;;
55292;SDS011;41157;53.560;10.098;2023-10-13T10:23:07;10.90;;;4.03;;
55292;SDS011;41157;53.560;10.098;2023-10-13T10:25:37;10.70;;;4.25;;
55292;SDS011;41157;53.560;10.098;2023-10-13T10:28:09;8.30;;;4.32;;
55292;SDS011;41157;53.560;10.098;2023-10-13T10:30:40;12.05;;;4.45;;
55292;SDS011;41157;53.560;10.098;2023-10-13T10:33:10;8.35;;;4.20;;
55292;SDS011;41157;53.560;10.098;2023-10-13T10:35:38;13.20;;;4.32;;
55292;SDS011;41157;53.560;10.098;2023-10-13T10:38:08;9.27;;;3.88;;
55292;SDS011;41157;53.560;10.098;2023-10-13T10:40:50;11.60;;;3.80;;
55292;SDS011;41157;53.560;10.098;2023-10-13T10:43:21;6.07;;;3.80;;
55292;SDS011;41157;53.560;10.098;2023-10-13T10:45:51;6.38;;;3.63;;
55292;SDS011;41157;53.560;10.098;2023-10-13T10:48:25;7.38;;;4.05;;
55292;SDS011;41157;53.560;10.098;2023-10-13T10:50:59;10.88;;;3.90;;
55292;SDS011;41157;53.560;10.098;2023-10-13T10:53:33;5.57;;;3.58;;
55292;SDS011;41157;53.560;10.098;2023-10-13T10:56:08;8.35;;;3.78;;
55292;SDS011;41157;53.560;10.098;2023-10-13T10:58:44;8.52;;;4.30;;
55292;SDS011;41157;53.560;10.098;2023-10-13T11:01:11;9.00;;;4.22;;
55292;SDS011;41157;53.560;10.098;2023-10-13T11:03:53;7.05;;;3.72;;
55292;SDS011;41157;53.560;10.098;2023-10-13T11:06:22;12.85;;;4.22;;
55292;SDS011;41157;53.560;10.098;2023-10-13T11:09:00;6.38;;;3.72;;
55292;SDS011;41157;53.560;10.098;2023-10-13T11:11:29;10.95;;;4.25;;
55292;SDS011;41157;53.560;10.098;2023-10-13T11:14:00;7.50;;;3.72;;
55292;SDS011;41157;53.560;10.098;2023-10-13T11:16:46;8.13;;;4.00;;
55292;SDS011;41157;53.560;10.098;2023-10-13T11:19:17;10.55;;;4.10;;
55292;SDS011;41157;53.560;10.098;2023-10-13T11:21:50;7.05;;;3.85;;
55292;SDS011;41157;53.560;10.098;2023-10-13T11:24:17;9.85;;;4.40;;
55292;SDS011;41157;53.560;10.098;2023-10-13T11:26:46;9.25;;;3.97;;
55292;SDS011;41157;53.560;10.098;2023-10-13T11:29:17;10.18;;;4.10;;
55292;SDS011;41157;53.560;10.098;2023-10-13T11:31:45;6.43;;;4.25;;
55292;SDS011;41157;53.560;10.098;2023-10-13T11:34:19;9.98;;;4.20;;
55292;SDS011;41157;53.560;10.098;2023-10-13T11:36:46;7.68;;;4.00;;
55292;SDS011;41157;53.560;10.098;2023-10-13T11:39:13;15.93;;;3.90;;
55292;SDS011;41157;53.560;10.098;2023-10-13T11:41:47;7.88;;;4.05;;
55292;SDS011;41157;53.560;10.098;2023-10-13T11:44:19;13.15;;;4.05;;
55292;SDS011;41157;53.560;10.098;2023-10-13T11:47:08;9.70;;;3.97;;
55292;SDS011;41157;53.560;10.098;2023-10-13T11:49:59;18.25;;;4.57;;
55292;SDS011;41157;53.560;10.098;2023-10-13T11:52:26;8.23;;;3.47;;
55292;SDS011;41157;53.560;10.098;2023-10-13T11:54:55;9.10;;;3.90;;
55292;SDS011;41157;53.560;10.098;2023-10-13T11:57:22;7.97;;;3.55;;
55292;SDS011;41157;53.560;10.098;2023-10-13T11:59:49;8.43;;;3.63;;
55292;SDS011;41157;53.560;10.098;2023-10-13T12:02:21;10.32;;;3.45;;
55292;SDS011;41157;53.560;10.098;2023-10-13T12:05:07;8.88;;;3.70;;
55292;SDS011;41157;53.560;10.098;2023-10-13T12:07:38;10.88;;;3.60;;
55292;SDS011;41157;53.560;10.098;2023-10-13T12:10:13;10.05;;;3.70;;
55292;SDS011;41157;53.560;10.098;2023-10-13T12:12:57;16.90;;;3.90;;
55292;SDS011;41157;53.560;10.098;2023-10-13T12:15:30;9.85;;;4.50;;
55292;SDS011;41157;53.560;10.098;2023-10-13T12:18:01;9.93;;;3.60;;
55292;SDS011;41157;53.560;10.098;2023-10-13T12:20:30;17.55;;;5.53;;
55292;SDS011;41157;53.560;10.098;2023-10-13T12:23:01;9.90;;;4.10;;
55292;SDS011;41157;53.560;10.098;2023-10-13T12:25:40;10.20;;;4.47;;
55292;SDS011;41157;53.560;10.098;2023-10-13T12:28:20;8.05;;;3.70;;
55292;SDS011;41157;53.560;10.098;2023-10-13T12:30:48;6.50;;;3.55;;
55292;SDS011;41157;53.560;10.098;2023-10-13T12:33:17;6.35;;;3.90;;
55292;SDS011;41157;53.560;10.098;2023-10-13T12:35:54;7.20;;;4.03;;
55292;SDS011;41157;53.560;10.098;2023-10-13T12:38:31;10.30;;;4.28;;
55292;SDS011;41157;53.560;10.098;2023-10-13T12:41:37;11.75;;;3.60;;
55292;SDS011;41157;53.560;10.098;2023-10-13T12:44:22;14.98;;;3.90;;
55292;SDS011;41157;53.560;10.098;2023-10-13T12:47:06;15.43;;;3.97;;
55292;SDS011;41157;53.560;10.098;2023-10-13T12:49:51;13.55;;;3.85;;
55292;SDS011;41157;53.560;10.098;2023-10-13T12:52:25;10.98;;;4.40;;
55292;SDS011;41157;53.560;10.098;2023-10-13T12:54:53;9.68;;;3.47;;
55292;SDS011;41157;53.560;10.098;2023-10-13T12:57:31;9.15;;;3.65;;
55292;SDS011;41157;53.560;10.098;2023-10-13T12:59:58;7.38;;;3.20;;
55292;SDS011;41157;53.560;10.098;2023-10-13T13:02:26;8.90;;;3.92;;
55292;SDS011;41157;53.560;10.098;2023-10-13T13:04:54;12.77;;;4.45;;
55292;SDS011;41157;53.560;10.098;2023-10-13T13:07:31;15.82;;;3.45;;
55292;SDS011;41157;53.560;10.098;2023-10-13T13:10:08;10.40;;;3.60;;
55292;SDS011;41157;53.560;10.098;2023-10-13T13:12:36;8.32;;;3.58;;
55292;SDS011;41157;53.560;10.098;2023-10-13T13:15:03;12.88;;;4.00;;
55292;SDS011;41157;53.560;10.098;2023-10-13T13:17:33;9.18;;;3.55;;
55292;SDS011;41157;53.560;10.098;2023-10-13T13:20:00;12.48;;;4.28;;
55292;SDS011;41157;53.560;10.098;2023-10-13T13:22:37;11.20;;;3.72;;
55292;SDS011;41157;53.560;10.098;2023-10-13T13:25:04;11.55;;;3.53;;
55292;SDS011;41157;53.560;10.098;2023-10-13T13:27:35;7.68;;;4.05;;
55292;SDS011;41157;53.560;10.098;2023-10-13T13:30:07;4.90;;;3.20;;
55292;SDS011;41157;53.560;10.098;2023-10-13T13:32:37;8.90;;;3.65;;
55292;SDS011;41157;53.560;10.098;2023-10-13T13:35:06;10.38;;;4.30;;
55292;SDS011;41157;53.560;10.098;2023-10-13T13:37:34;12.02;;;4.03;;
55292;SDS011;41157;53.560;10.098;2023-10-13T13:40:05;6.30;;;3.53;;
55292;SDS011;41157;53.560;10.098;2023-10-13T13:42:39;8.80;;;3.85;;
55292;SDS011;41157;53.560;10.098;2023-10-13T13:45:11;9.07;;;3.42;;
55292;SDS011;41157;53.560;10.098;2023-10-13T13:47:44;9.48;;;3.35;;
55292;SDS011;41157;53.560;10.098;2023-10-13T13:50:11;6.53;;;3.55;;
55292;SDS011;41157;53.560;10.098;2023-10-13T13:52:42;8.40;;;3.60;;
55292;SDS011;41157;53.560;10.098;2023-10-13T13:55:13;10.18;;;3.47;;
55292;SDS011;41157;53.560;10.098;2023-10-13T13:57:42;10.32;;;3.80;;
55292;SDS011;41157;53.560;10.098;2023-10-13T14:00:09;6.82;;;3.45;;
55292;SDS011;41157;53.560;10.098;2023-10-13T14:02:42;7.88;;;4.15;;
55292;SDS011;41157;53.560;10.098;2023-10-13T14:05:12;11.27;;;3.80;;
55292;SDS011;41157;53.560;10.098;2023-10-13T14:07:41;11.48;;;4.18;;
55292;SDS011;41157;53.560;10.098;2023-10-13T14:10:14;8.90;;;3.88;;
55292;SDS011;41157;53.560;10.098;2023-10-13T14:12:56;14.35;;;4.03;;
55292;SDS011;41157;53.560;10.098;2023-10-13T14:15:31;12.02;;;3.63;;
55292;SDS011;41157;53.560;10.098;2023-10-13T14:18:04;14.60;;;4.13;;
55292;SDS011;41157;53.560;10.098;2023-10-13T14:20:32;11.82;;;4.28;;
55292;SDS011;41157;53.560;10.098;2023-10-13T14:23:04;7.85;;;4.25;;
55292;SDS011;41157;53.560;10.098;2023-10-13T14:25:33;9.85;;;4.18;;
55292;SDS011;41157;53.560;10.098;2023-10-13T14:28:02;11.70;;;4.47;;
55292;SDS011;41157;53.560;10.098;2023-10-13T14:30:29;8.90;;;3.83;;
55292;SDS011;41157;53.560;10.098;2023-10-13T14:32:56;11.68;;;4.20;;
55292;SDS011;41157;53.560;10.098;2023-10-13T14:35:24;11.60;;;4.50;;
55292;SDS011;41157;53.560;10.098;2023-10-13T14:37:51;5.47;;;3.75;;
55292;SDS011;41157;53.560;10.098;2023-10-13T14:40:19;10.63;;;4.38;;
55292;SDS011;41157;53.560;10.098;2023-10-13T14:42:48;13.88;;;4.47;;
55292;SDS011;41157;53.560;10.098;2023-10-13T14:45:15;20.00;;;4.68;;
55292;SDS011;41157;53.560;10.098;2023-10-13T14:47:42;10.50;;;4.00;;
55292;SDS011;41157;53.560;10.098;2023-10-13T14:50:10;12.88;;;4.13;;
55292;SDS011;41157;53.560;10.098;2023-10-13T14:52:44;9.10;;;4.32;;
55292;SDS011;41157;53.560;10.098;2023-10-13T14:55:11;12.30;;;3.85;;
55292;SDS011;41157;53.560;10.098;2023-10-13T14:57:45;13.60;;;4.57;;
55292;SDS011;41157;53.560;10.098;2023-10-13T15:00:14;11.55;;;4.15;;